Time;durP1;ratioP1;P1;durP2;ratioP2;P2;SDS_P1;SDS_P2;PMS_P1;PMS_P2;Temp;Humidity;BMP_temperature;BMP_pressure;BME280_temperature;BME280_humidity;BME280_pressure;Samples;Min_cycle;Max_cycle;Signal;HPM_P1;HPM_P2
2021/10/11 00:01:48;;;;;;;13.45;2.58;;;9.90;99.90;;;;;;6220368;23;20327;-92
2021/10/11 00:04:14;;;;;;;9.15;1.55;;;9.90;99.90;;;;;;6221490;23;20100;-91
2021/10/11 00:06:40;;;;;;;11.35;1.92;;;9.90;99.90;;;;;;6227386;23;20004;-94
2021/10/11 00:09:06;;;;;;;9.23;1.98;;;9.90;99.90;;;;;;6229284;23;20673;-92
2021/10/11 00:11:31;;;;;;;9.10;1.70;;;10.00;99.90;;;;;;6228772;23;20004;-92
2021/10/11 00:13:57;;;;;;;17.00;2.08;;;9.90;99.90;;;;;;6225497;23;20515;-93
2021/10/11 00:16:23;;;;;;;10.38;1.42;;;9.90;99.90;;;;;;6222274;23;20339;-93
2021/10/11 00:18:49;;;;;;;8.18;1.30;;;9.90;99.90;;;;;;6221583;23;20066;-91
2021/10/11 00:21:16;;;;;;;8.75;1.98;;;9.90;99.90;;;;;;6221732;23;20499;-92
2021/10/11 00:23:42;;;;;;;13.93;3.67;;;9.90;99.90;;;;;;6229900;23;20098;-93
2021/10/11 00:26:08;;;;;;;8.15;1.40;;;9.90;99.90;;;;;;6234623;23;20000;-91
2021/10/11 00:28:34;;;;;;;9.82;2.03;;;9.90;99.90;;;;;;6225201;23;20004;-91
2021/10/11 00:30:59;;;;;;;10.32;1.80;;;9.90;99.90;;;;;;6223841;23;20030;-91
2021/10/11 00:33:25;;;;;;;11.02;1.50;;;9.90;99.90;;;;;;6223642;23;20100;-91
2021/10/11 00:35:51;;;;;;;11.30;1.40;;;9.90;99.90;;;;;;6221445;23;20016;-91
2021/10/11 00:38:16;;;;;;;8.52;1.60;;;9.90;99.90;;;;;;6221690;23;20001;-92
2021/10/11 00:40:42;;;;;;;5.80;1.30;;;9.90;99.90;;;;;;6223138;23;20008;-92
2021/10/11 00:43:08;;;;;;;6.80;1.17;;;9.90;99.90;;;;;;6222113;23;20004;-93
2021/10/11 00:45:33;;;;;;;7.40;1.50;;;9.90;99.90;;;;;;6220938;23;20046;-93
2021/10/11 00:47:59;;;;;;;12.20;1.30;;;9.90;99.90;;;;;;6221289;23;20011;-93
2021/10/11 00:50:25;;;;;;;9.82;1.27;;;9.90;99.90;;;;;;6221216;23;20008;-92
2021/10/11 00:52:50;;;;;;;9.32;1.48;;;9.90;99.90;;;;;;6221782;23;20008;-93
2021/10/11 00:55:16;;;;;;;4.78;0.80;;;9.90;99.90;;;;;;6222333;23;20450;-91
2021/10/11 00:57:42;;;;;;;10.95;1.00;;;9.90;99.90;;;;;;6221760;23;20007;-92
2021/10/11 01:00:08;;;;;;;12.85;1.60;;;9.90;99.90;;;;;;6221279;23;20008;-91
2021/10/11 01:02:34;;;;;;;13.63;1.55;;;9.90;99.90;;;;;;6222548;23;20007;-90
2021/10/11 01:05:00;;;;;;;12.70;1.90;;;9.90;99.90;;;;;;6233316;23;20000;-92
2021/10/11 01:07:26;;;;;;;8.15;1.38;;;9.90;99.90;;;;;;6222944;23;20020;-92
2021/10/11 01:09:52;;;;;;;7.18;1.30;;;9.80;99.90;;;;;;6221701;23;20012;-92
2021/10/11 01:12:17;;;;;;;7.60;1.45;;;9.80;99.90;;;;;;6196051;23;20368;-92
2021/10/11 01:14:43;;;;;;;14.40;1.85;;;9.80;99.90;;;;;;6221939;23;20016;-92
2021/10/11 01:17:09;;;;;;;14.10;1.50;;;9.80;99.90;;;;;;6222323;23;20403;-92
2021/10/11 01:19:37;;;;;;;4.78;1.05;;;9.80;99.90;;;;;;6223139;23;20077;-91
2021/10/11 01:22:03;;;;;;;8.00;1.60;;;9.80;99.90;;;;;;6222891;23;20004;-94
2021/10/11 01:24:29;;;;;;;10.20;1.40;;;9.70;99.90;;;;;;6223969;23;20008;-92
2021/10/11 01:26:55;;;;;;;10.32;1.42;;;9.70;99.90;;;;;;6237718;23;20005;-92
2021/10/11 01:29:21;;;;;;;15.38;1.75;;;9.70;99.90;;;;;;6222929;23;20600;-91
2021/10/11 01:31:48;;;;;;;4.97;1.10;;;9.70;99.90;;;;;;6221372;23;20031;-93
2021/10/11 01:34:13;;;;;;;9.85;1.48;;;9.70;99.90;;;;;;6221729;23;20039;-92
2021/10/11 01:36:39;;;;;;;8.02;1.45;;;9.70;99.90;;;;;;6221920;23;20004;-91
2021/10/11 01:39:07;;;;;;;13.90;1.40;;;9.60;99.90;;;;;;6221257;23;20008;-91
2021/10/11 01:41:32;;;;;;;15.18;1.83;;;9.70;99.90;;;;;;6247563;23;20011;-92
2021/10/11 01:43:59;;;;;;;10.18;1.50;;;9.70;99.90;;;;;;6220557;23;20363;-92
2021/10/11 01:46:24;;;;;;;15.45;1.92;;;9.60;99.90;;;;;;6221705;23;20008;-92
2021/10/11 01:48:50;;;;;;;14.43;1.35;;;9.60;99.90;;;;;;6222207;23;20142;-91
2021/10/11 01:51:16;;;;;;;10.02;1.50;;;9.60;99.90;;;;;;6222646;23;20019;-92
2021/10/11 01:53:41;;;;;;;11.98;1.55;;;9.60;99.90;;;;;;6220740;23;20027;-92
2021/10/11 01:56:07;;;;;;;11.02;2.03;;;9.60;99.90;;;;;;6196389;23;20087;-91
2021/10/11 01:58:33;;;;;;;6.72;1.30;;;9.60;99.90;;;;;;6222618;23;20004;-92
2021/10/11 02:00:59;;;;;;;13.77;1.60;;;9.60;99.90;;;;;;6222273;23;20075;-90
2021/10/11 02:03:25;;;;;;;11.55;1.38;;;9.50;99.90;;;;;;6222455;23;20091;-92
2021/10/11 02:05:51;;;;;;;15.55;1.88;;;9.60;99.90;;;;;;6222050;23;20030;-94
2021/10/11 02:08:16;;;;;;;11.30;1.70;;;9.60;99.90;;;;;;6221495;23;20028;-92
2021/10/11 02:10:42;;;;;;;9.80;2.33;;;9.50;99.90;;;;;;6221582;23;20011;-93
2021/10/11 02:13:08;;;;;;;14.95;1.55;;;9.50;99.90;;;;;;6221298;23;20438;-93
2021/10/11 02:15:33;;;;;;;9.85;1.70;;;9.50;99.90;;;;;;6221201;23;20004;-93
2021/10/11 02:17:59;;;;;;;12.75;1.50;;;9.50;99.90;;;;;;6220817;23;20031;-94
2021/10/11 02:20:25;;;;;;;11.27;1.52;;;9.50;99.90;;;;;;6221149;23;20008;-92
2021/10/11 02:22:51;;;;;;;18.63;2.15;;;9.50;99.90;;;;;;6221925;23;20008;-92
2021/10/11 02:25:17;;;;;;;12.90;1.58;;;9.50;99.90;;;;;;6220454;23;20018;-92
2021/10/11 02:27:42;;;;;;;21.25;1.90;;;9.50;99.90;;;;;;6220367;23;20008;-92
2021/10/11 02:30:10;;;;;;;22.48;1.60;;;9.40;99.90;;;;;;6220450;23;20313;-94
2021/10/11 02:32:37;;;;;;;15.43;1.73;;;9.50;99.90;;;;;;6222108;23;20000;-92
2021/10/11 02:35:04;;;;;;;10.88;1.33;;;9.50;99.90;;;;;;6221682;23;20012;-94
2021/10/11 02:37:30;;;;;;;25.33;2.00;;;9.40;99.90;;;;;;6225210;23;20086;-95
2021/10/11 02:39:56;;;;;;;25.20;2.50;;;9.50;99.90;;;;;;6230071;23;20004;-91
2021/10/11 02:42:22;;;;;;;13.02;2.35;;;9.40;99.90;;;;;;6232877;23;20027;-93
2021/10/11 02:44:48;;;;;;;9.85;1.52;;;9.40;99.90;;;;;;6234971;23;19992;-92
2021/10/11 02:47:14;;;;;;;12.45;1.70;;;9.50;99.90;;;;;;6246630;23;20062;-93
2021/10/11 02:49:40;;;;;;;14.38;1.67;;;9.50;99.90;;;;;;6222345;22;20051;-92
2021/10/11 02:52:05;;;;;;;18.58;1.88;;;9.50;99.90;;;;;;6240915;23;20019;-91
2021/10/11 02:54:31;;;;;;;17.55;2.47;;;9.50;99.90;;;;;;6227591;23;20023;-93
2021/10/11 02:56:57;;;;;;;13.93;1.42;;;9.50;99.90;;;;;;6225067;23;20000;-92
2021/10/11 02:59:23;;;;;;;12.02;1.42;;;9.50;99.90;;;;;;6224425;23;20370;-93
2021/10/11 03:01:48;;;;;;;13.35;1.92;;;9.50;99.90;;;;;;6223247;23;20064;-92
2021/10/11 03:04:14;;;;;;;12.90;1.63;;;9.50;99.90;;;;;;6223508;23;20406;-93
2021/10/11 03:06:40;;;;;;;17.05;2.65;;;9.50;99.90;;;;;;6221944;23;20004;-93
2021/10/11 03:09:05;;;;;;;13.63;2.38;;;9.40;99.90;;;;;;6221629;23;20476;-91
2021/10/11 03:11:31;;;;;;;19.48;3.72;;;9.40;99.90;;;;;;6223039;23;20376;-92
2021/10/11 03:13:57;;;;;;;12.30;1.90;;;9.40;99.90;;;;;;6229424;23;20069;-93
2021/10/11 03:16:23;;;;;;;13.40;3.20;;;9.40;99.90;;;;;;6233832;23;20293;-92
2021/10/11 03:18:48;;;;;;;9.75;2.08;;;9.40;99.90;;;;;;6220420;23;20008;-92
2021/10/11 03:21:17;;;;;;;14.00;1.77;;;9.30;99.90;;;;;;6221041;23;20096;-91
2021/10/11 03:23:44;;;;;;;23.73;3.55;;;9.40;99.90;;;;;;6220339;23;20012;-91
2021/10/11 03:26:10;;;;;;;16.10;1.70;;;9.30;99.90;;;;;;6220459;23;20012;-91
2021/10/11 03:28:35;;;;;;;9.65;1.20;;;9.30;99.90;;;;;;6220558;23;20004;-91
2021/10/11 03:31:01;;;;;;;14.15;1.75;;;9.20;99.90;;;;;;6221017;23;20023;-91
2021/10/11 03:33:27;;;;;;;18.20;1.85;;;9.20;99.90;;;;;;6220716;23;20015;-91
2021/10/11 03:35:53;;;;;;;17.55;2.65;;;9.20;99.90;;;;;;6220041;23;20431;-90
2021/10/11 03:38:19;;;;;;;15.77;1.80;;;9.20;99.90;;;;;;6219938;23;20055;-92
2021/10/11 03:40:44;;;;;;;11.80;1.60;;;9.20;99.90;;;;;;6220222;23;20458;-91
2021/10/11 03:43:10;;;;;;;10.27;1.42;;;9.20;99.90;;;;;;6220979;23;20000;-91
2021/10/11 03:45:36;;;;;;;17.38;2.47;;;9.20;99.90;;;;;;6221521;23;20379;-93
2021/10/11 03:48:02;;;;;;;14.02;1.85;;;9.10;99.90;;;;;;6223348;23;20012;-91
2021/10/11 03:50:27;;;;;;;12.18;1.50;;;9.10;99.90;;;;;;6222064;23;20000;-91
2021/10/11 03:52:53;;;;;;;16.50;1.23;;;9.10;99.90;;;;;;6220094;23;20061;-91
2021/10/11 03:55:18;;;;;;;11.38;1.95;;;9.10;99.90;;;;;;6220667;23;20336;-91
2021/10/11 03:57:44;;;;;;;8.05;1.48;;;9.10;99.90;;;;;;6219972;23;20424;-92
2021/10/11 04:00:10;;;;;;;11.93;1.48;;;9.00;99.90;;;;;;6220759;23;20031;-91
2021/10/11 04:02:36;;;;;;;10.25;1.73;;;9.00;99.90;;;;;;6221505;23;20047;-92
2021/10/11 04:05:08;;;;;;;21.42;2.08;;;9.00;99.90;;;;;;6220564;23;20035;-91
2021/10/11 04:07:36;;;;;;;10.88;1.40;;;9.00;99.90;;;;;;6219911;23;20004;-92
2021/10/11 04:10:05;;;;;;;11.32;1.23;;;8.90;99.90;;;;;;6220004;23;20023;-92
2021/10/11 04:12:34;;;;;;;12.88;2.67;;;8.90;99.90;;;;;;6220740;23;20000;-94
2021/10/11 04:15:01;;;;;;;16.73;1.80;;;8.90;99.90;;;;;;6218554;23;20033;-92
2021/10/11 04:17:27;;;;;;;13.30;2.83;;;8.90;99.90;;;;;;6231138;23;20019;-92
2021/10/11 04:19:54;;;;;;;16.40;2.58;;;8.90;99.90;;;;;;6223270;23;20024;-94
2021/10/11 04:22:20;;;;;;;12.73;1.85;;;8.90;99.90;;;;;;6221320;23;20027;-91
2021/10/11 04:24:46;;;;;;;9.50;1.50;;;8.90;99.90;;;;;;6220042;23;20052;-93
2021/10/11 04:27:11;;;;;;;12.40;1.35;;;8.90;99.90;;;;;;6219149;23;20090;-92
2021/10/11 04:29:38;;;;;;;11.88;1.52;;;8.90;99.90;;;;;;6219750;23;20123;-92
2021/10/11 04:32:04;;;;;;;8.93;1.40;;;8.90;99.90;;;;;;6219495;23;20010;-92
2021/10/11 04:34:30;;;;;;;13.85;2.13;;;8.90;99.90;;;;;;6219510;23;20436;-92
2021/10/11 04:37:04;;;;;;;11.55;1.45;;;8.80;99.90;;;;;;6220622;23;20011;-93
2021/10/11 04:39:30;;;;;;;17.80;1.83;;;8.80;99.90;;;;;;6222262;23;20119;-92
2021/10/11 04:41:56;;;;;;;16.10;1.80;;;8.80;99.90;;;;;;6224144;23;20000;-91
2021/10/11 04:44:21;;;;;;;13.82;1.75;;;8.80;99.90;;;;;;6225359;23;20023;-91
2021/10/11 04:46:47;;;;;;;17.55;3.80;;;8.80;99.90;;;;;;6225515;23;20011;-92
2021/10/11 04:49:12;;;;;;;19.90;2.80;;;8.80;99.90;;;;;;6224757;23;20027;-91
2021/10/11 04:51:38;;;;;;;13.77;1.80;;;8.80;99.90;;;;;;6222742;23;20008;-92
2021/10/11 04:54:04;;;;;;;14.65;1.83;;;8.80;99.90;;;;;;6221493;23;20050;-91
2021/10/11 04:56:29;;;;;;;9.48;1.48;;;8.90;99.90;;;;;;6221856;23;20000;-92
2021/10/11 04:58:55;;;;;;;16.67;3.60;;;8.80;99.90;;;;;;6223757;23;20005;-93
2021/10/11 05:01:21;;;;;;;14.68;2.00;;;8.90;99.90;;;;;;6226760;23;20091;-92
2021/10/11 05:03:47;;;;;;;21.45;2.55;;;8.90;99.90;;;;;;6236225;23;20329;-93
2021/10/11 05:06:12;;;;;;;17.67;2.15;;;8.90;99.90;;;;;;6235619;23;20008;-94
2021/10/11 05:08:38;;;;;;;13.63;1.73;;;8.80;99.90;;;;;;6223046;23;20023;-93
2021/10/11 05:11:04;;;;;;;10.15;1.52;;;8.80;99.90;;;;;;6222047;23;20027;-94
2021/10/11 05:13:29;;;;;;;21.35;3.40;;;8.80;99.90;;;;;;6221923;23;20087;-94
2021/10/11 05:15:55;;;;;;;13.05;1.75;;;8.80;99.90;;;;;;6222779;23;20012;-94
2021/10/11 05:18:21;;;;;;;11.85;1.95;;;8.70;99.90;;;;;;6222476;23;20008;-94
2021/10/11 05:20:51;;;;;;;12.63;2.15;;;8.70;99.90;;;;;;6222492;23;20012;-93
2021/10/11 05:23:18;;;;;;;14.07;1.83;;;8.70;99.90;;;;;;6223068;23;20024;-93
2021/10/11 05:25:45;;;;;;;14.73;1.80;;;8.60;99.90;;;;;;6228547;23;20035;-93
2021/10/11 05:28:10;;;;;;;16.58;2.08;;;8.60;99.90;;;;;;6231182;23;20033;-94
2021/10/11 05:30:40;;;;;;;15.90;3.28;;;8.60;99.90;;;;;;6232468;23;20000;-93
2021/10/11 05:33:07;;;;;;;15.80;1.60;;;8.60;99.90;;;;;;6230837;23;20015;-92
2021/10/11 05:35:32;;;;;;;19.42;2.33;;;8.60;99.90;;;;;;6224717;23;20022;-94
2021/10/11 05:37:58;;;;;;;6.50;1.20;;;8.60;99.90;;;;;;6223721;23;20020;-92
2021/10/11 05:40:24;;;;;;;12.98;2.15;;;8.50;99.90;;;;;;6223017;23;20015;-93
2021/10/11 05:42:49;;;;;;;11.43;1.63;;;8.50;99.90;;;;;;6224340;23;20011;-94
2021/10/11 05:45:15;;;;;;;13.80;1.83;;;8.50;99.90;;;;;;6228131;23;20004;-94
2021/10/11 05:47:41;;;;;;;20.88;1.63;;;8.50;99.90;;;;;;6227859;23;20497;-93
2021/10/11 05:50:13;;;;;;;12.10;1.52;;;8.50;99.90;;;;;;6227239;23;20062;-93
2021/10/11 05:52:38;;;;;;;14.70;1.70;;;8.50;99.90;;;;;;6222491;23;20004;-93
2021/10/11 05:55:06;;;;;;;18.52;2.72;;;8.40;99.90;;;;;;6234659;23;20022;-94
2021/10/11 05:57:32;;;;;;;13.85;2.30;;;8.40;99.90;;;;;;6226922;23;20526;-92
2021/10/11 05:59:59;;;;;;;12.73;2.35;;;8.40;99.90;;;;;;6221800;23;20008;-94
2021/10/11 06:04:52;;;;;;;17.58;2.70;;;8.40;99.90;;;;;;6171197;23;20004;-94
2021/10/11 06:07:17;;;;;;;16.23;2.72;;;8.40;99.90;;;;;;6220457;23;20008;-94
2021/10/11 06:09:43;;;;;;;13.77;2.95;;;8.40;99.90;;;;;;6219383;23;20094;-93
2021/10/11 06:12:09;;;;;;;13.93;1.70;;;8.40;99.90;;;;;;6221315;23;20028;-93
2021/10/11 06:14:38;;;;;;;17.23;1.95;;;8.40;99.90;;;;;;6230495;23;20436;-94
2021/10/11 06:17:03;;;;;;;11.90;1.90;;;8.30;99.90;;;;;;6240403;22;20003;-94
2021/10/11 06:19:29;;;;;;;11.90;1.63;;;8.30;99.90;;;;;;6239900;23;20305;-94
2021/10/11 06:21:57;;;;;;;14.05;1.65;;;8.30;99.90;;;;;;6225943;23;20004;-94
2021/10/11 06:24:23;;;;;;;7.13;1.63;;;8.30;99.90;;;;;;6221705;23;20004;-93
2021/10/11 06:26:49;;;;;;;13.23;1.60;;;8.30;99.90;;;;;;6219572;23;20092;-92
2021/10/11 06:29:15;;;;;;;11.10;1.75;;;8.30;99.90;;;;;;6220490;23;20008;-91
2021/10/11 06:31:41;;;;;;;9.60;1.40;;;8.30;99.90;;;;;;6220671;23;20012;-93
2021/10/11 06:34:06;;;;;;;9.18;1.35;;;8.20;99.90;;;;;;6220215;23;20019;-92
2021/10/11 06:36:36;;;;;;;10.80;1.77;;;8.30;99.90;;;;;;6221069;23;20027;-93
2021/10/11 06:39:03;;;;;;;11.37;1.57;;;8.20;99.90;;;;;;6228733;23;19996;-94
2021/10/11 06:41:29;;;;;;;10.20;1.55;;;8.30;99.90;;;;;;6235522;23;20063;-92
2021/10/11 06:43:55;;;;;;;9.32;1.50;;;8.40;99.90;;;;;;6234484;23;20000;-92
2021/10/11 06:46:21;;;;;;;12.30;1.55;;;8.50;99.90;;;;;;6231918;23;20012;-93
2021/10/11 06:48:47;;;;;;;14.68;1.40;;;8.60;99.90;;;;;;6229650;23;20000;-93
2021/10/11 06:51:12;;;;;;;14.98;3.13;;;8.80;99.90;;;;;;6246629;23;20034;-93
2021/10/11 06:53:38;;;;;;;12.65;1.35;;;8.80;99.90;;;;;;6248157;23;20023;-93
2021/10/11 06:56:04;;;;;;;11.00;1.65;;;8.90;99.90;;;;;;6232462;23;20015;-92
2021/10/11 06:58:30;;;;;;;9.10;1.70;;;8.90;99.90;;;;;;6223942;23;20032;-93
2021/10/11 07:00:56;;;;;;;9.05;1.60;;;9.00;99.90;;;;;;6221835;23;20008;-93
2021/10/11 07:03:25;;;;;;;9.18;1.38;;;9.10;99.90;;;;;;6228130;23;20009;-93
2021/10/11 07:06:05;;;;;;;11.52;1.90;;;9.20;99.90;;;;;;6224254;23;20008;-95
2021/10/11 07:08:32;;;;;;;12.27;1.70;;;9.40;99.90;;;;;;6220890;23;20087;-94
2021/10/11 07:10:58;;;;;;;10.57;1.98;;;9.50;99.90;;;;;;6220499;23;20028;-94
2021/10/11 07:13:24;;;;;;;11.07;1.92;;;9.50;99.90;;;;;;6220390;23;20058;-92
2021/10/11 07:15:50;;;;;;;12.60;2.13;;;9.50;99.90;;;;;;6220507;23;20012;-91
2021/10/11 07:18:16;;;;;;;10.82;1.83;;;9.50;99.90;;;;;;6219658;23;20023;-92
2021/10/11 07:20:45;;;;;;;13.63;2.28;;;9.50;99.90;;;;;;6222597;23;20015;-91
2021/10/11 07:23:12;;;;;;;14.90;3.38;;;9.60;99.90;;;;;;6222144;23;20004;-93
2021/10/11 07:25:39;;;;;;;15.32;2.45;;;9.50;99.90;;;;;;6220010;23;20030;-92
2021/10/11 07:28:05;;;;;;;14.07;2.20;;;9.50;99.90;;;;;;6222015;23;20008;-94
2021/10/11 07:30:33;;;;;;;12.55;2.35;;;9.60;99.90;;;;;;6221899;23;20008;-93
2021/10/11 07:32:59;;;;;;;13.65;1.70;;;9.60;99.90;;;;;;6237384;23;20047;-92
2021/10/11 07:35:25;;;;;;;9.80;2.30;;;9.70;99.90;;;;;;6222808;23;20015;-93
2021/10/11 07:37:50;;;;;;;15.23;2.25;;;9.60;99.90;;;;;;6223179;23;20000;-93
2021/10/11 07:40:17;;;;;;;11.82;1.95;;;9.70;99.90;;;;;;6219401;23;20428;-93
2021/10/11 07:42:44;;;;;;;21.42;1.95;;;9.70;99.90;;;;;;6219959;23;20007;-92
2021/10/11 07:45:10;;;;;;;20.92;2.17;;;9.70;99.90;;;;;;6219606;23;20452;-92
2021/10/11 07:47:35;;;;;;;9.15;1.33;;;9.80;99.90;;;;;;6220066;23;20011;-91
2021/10/11 07:50:02;;;;;;;15.57;2.03;;;9.80;99.90;;;;;;6224598;23;20012;-94
2021/10/11 07:52:28;;;;;;;12.90;1.50;;;9.80;99.90;;;;;;6236130;23;20004;-96
2021/10/11 07:54:54;;;;;;;12.65;1.50;;;9.80;99.90;;;;;;6232847;23;20008;-95
2021/10/11 07:57:20;;;;;;;11.23;1.40;;;9.90;99.90;;;;;;6228946;23;20011;-95
2021/10/11 07:59:45;;;;;;;18.35;1.98;;;10.00;99.90;;;;;;6200995;23;20012;-95
2021/10/11 08:02:11;;;;;;;11.52;2.42;;;10.00;99.90;;;;;;6225929;23;20015;-96
2021/10/11 08:04:37;;;;;;;16.10;1.83;;;10.10;99.90;;;;;;6229460;23;20004;-96
2021/10/11 08:07:03;;;;;;;15.57;3.28;;;10.10;99.90;;;;;;6204390;23;20035;-96
2021/10/11 08:09:29;;;;;;;12.30;1.52;;;10.20;99.90;;;;;;6245664;23;20005;-90
2021/10/11 08:11:54;;;;;;;11.75;1.52;;;10.20;99.90;;;;;;6219598;23;20004;-90
2021/10/11 08:14:20;;;;;;;13.95;2.55;;;10.30;99.90;;;;;;6214178;23;20403;-93
2021/10/11 08:16:46;;;;;;;14.68;2.00;;;10.40;99.90;;;;;;6216813;23;20092;-90
2021/10/11 08:19:12;;;;;;;11.07;1.45;;;10.40;99.90;;;;;;6244505;23;20047;-92
2021/10/11 08:21:38;;;;;;;11.65;1.88;;;10.60;99.90;;;;;;6216672;23;20004;-92
2021/10/11 08:24:04;;;;;;;15.40;1.90;;;10.60;99.90;;;;;;6215081;23;20015;-92
2021/10/11 08:26:31;;;;;;;17.85;1.88;;;10.70;99.90;;;;;;6248315;23;20012;-93
2021/10/11 08:28:59;;;;;;;9.45;1.50;;;10.80;99.90;;;;;;6221475;23;20447;-91
2021/10/11 08:31:25;;;;;;;14.98;1.73;;;10.90;99.90;;;;;;6221702;23;20008;-92
2021/10/11 08:33:51;;;;;;;16.33;2.47;;;11.00;99.90;;;;;;6248630;23;20085;-92
2021/10/11 08:36:16;;;;;;;11.60;1.58;;;11.10;99.90;;;;;;6226870;23;20011;-92
2021/10/11 08:38:43;;;;;;;12.05;1.50;;;11.10;99.90;;;;;;6255379;23;20004;-91
2021/10/11 08:41:09;;;;;;;16.83;1.67;;;11.20;99.90;;;;;;6224043;23;20116;-91
2021/10/11 08:43:36;;;;;;;11.88;1.58;;;11.20;99.90;;;;;;6225291;23;20007;-92
2021/10/11 08:46:03;;;;;;;9.40;2.70;;;11.30;99.90;;;;;;6236338;23;20012;-91
2021/10/11 08:48:31;;;;;;;12.32;1.85;;;11.30;99.90;;;;;;6227085;23;20007;-91
2021/10/11 08:50:56;;;;;;;14.85;1.98;;;11.30;99.90;;;;;;6225568;23;20035;-89
2021/10/11 08:53:22;;;;;;;7.93;1.45;;;11.40;99.90;;;;;;6225828;23;20008;-91
2021/10/11 08:55:48;;;;;;;11.63;1.75;;;11.40;99.90;;;;;;6223227;23;20008;-90
2021/10/11 08:58:14;;;;;;;10.52;2.45;;;11.40;99.90;;;;;;6222254;23;20009;-90
2021/10/11 09:00:40;;;;;;;16.10;1.83;;;11.50;99.90;;;;;;6224139;23;20026;-92
2021/10/11 09:03:08;;;;;;;7.97;1.63;;;11.50;99.90;;;;;;6222756;23;20058;-92
2021/10/11 09:05:40;;;;;;;14.63;1.85;;;11.50;99.90;;;;;;6248036;23;20004;-91
2021/10/11 09:08:14;;;;;;;12.88;1.85;;;11.50;99.90;;;;;;6221256;23;20013;-91
2021/10/11 09:10:53;;;;;;;7.63;1.73;;;11.60;99.90;;;;;;6248266;23;20012;-90
2021/10/11 09:13:23;;;;;;;16.15;1.67;;;11.60;99.90;;;;;;6226979;23;20016;-92
2021/10/11 09:16:04;;;;;;;10.00;1.70;;;11.60;99.90;;;;;;6221660;23;20514;-92
2021/10/11 09:18:31;;;;;;;10.55;2.17;;;11.60;99.90;;;;;;6220510;23;20008;-92
2021/10/11 09:20:57;;;;;;;6.07;1.33;;;11.50;99.90;;;;;;6220912;23;20064;-90
2021/10/11 09:23:23;;;;;;;7.72;1.70;;;11.50;99.90;;;;;;6221059;23;20008;-91
2021/10/11 09:25:50;;;;;;;11.82;1.58;;;11.50;99.90;;;;;;6220502;23;20012;-92
2021/10/11 09:28:19;;;;;;;10.73;2.00;;;11.50;99.90;;;;;;6220805;23;20011;-90
2021/10/11 09:30:48;;;;;;;9.90;1.70;;;11.50;99.90;;;;;;6220866;23;20089;-91
2021/10/11 09:33:18;;;;;;;10.05;1.73;;;11.60;99.90;;;;;;6220594;23;20455;-91
2021/10/11 09:35:45;;;;;;;10.27;1.33;;;11.60;99.90;;;;;;6221232;22;20027;-91
2021/10/11 09:38:23;;;;;;;8.68;1.30;;;11.80;99.90;;;;;;6248686;23;20000;-92
2021/10/11 09:40:59;;;;;;;7.80;1.33;;;11.90;99.90;;;;;;6246618;23;20028;-90
2021/10/11 09:43:27;;;;;;;9.13;2.00;;;12.10;99.90;;;;;;6219157;23;20027;-92
2021/10/11 09:45:54;;;;;;;9.07;1.08;;;12.40;99.90;;;;;;6218653;23;20408;-92
2021/10/11 09:48:20;;;;;;;7.25;1.27;;;12.80;99.90;;;;;;6245983;23;20485;-90
2021/10/11 09:50:46;;;;;;;8.50;1.35;;;13.00;99.90;;;;;;6247504;23;20000;-89
2021/10/11 09:53:15;;;;;;;14.18;1.40;;;13.10;99.90;;;;;;6220367;23;20004;-89
2021/10/11 09:55:41;;;;;;;8.60;1.20;;;13.10;99.90;;;;;;6222059;23;20012;-90
2021/10/11 09:58:11;;;;;;;9.82;2.17;;;13.10;99.90;;;;;;6249559;23;20008;-90
2021/10/11 10:00:42;;;;;;;9.98;1.30;;;13.00;99.90;;;;;;6223098;23;20513;-90
2021/10/11 10:03:13;;;;;;;9.45;1.20;;;13.00;99.90;;;;;;6217303;23;20008;-90
2021/10/11 10:05:49;;;;;;;7.88;1.13;;;13.00;99.90;;;;;;6249314;23;20081;-90
2021/10/11 10:08:25;;;;;;;6.60;1.20;;;13.00;99.90;;;;;;6247611;23;20424;-90
2021/10/11 10:10:59;;;;;;;9.95;1.85;;;13.00;99.90;;;;;;6221544;23;20420;-91
2021/10/11 10:13:25;;;;;;;7.90;1.20;;;13.10;99.90;;;;;;6251905;23;20058;-92
2021/10/11 10:15:54;;;;;;;5.95;0.80;;;13.10;99.90;;;;;;6248100;23;20007;-92
2021/10/11 10:18:21;;;;;;;9.00;1.20;;;13.10;99.90;;;;;;6220438;23;20007;-92
2021/10/11 10:20:57;;;;;;;10.75;1.38;;;13.10;99.90;;;;;;6220644;23;20008;-91
2021/10/11 10:23:35;;;;;;;9.65;1.30;;;13.10;99.90;;;;;;6246768;23;20027;-92
2021/10/11 10:26:06;;;;;;;7.65;1.58;;;13.10;99.90;;;;;;6220526;23;20007;-92
2021/10/11 10:28:46;;;;;;;7.18;1.20;;;13.20;99.90;;;;;;6247387;23;20004;-91
2021/10/11 10:31:28;;;;;;;9.30;1.20;;;13.20;99.90;;;;;;6221008;23;20028;-92
2021/10/11 10:33:54;;;;;;;5.80;1.35;;;13.30;99.90;;;;;;6227215;23;20068;-91
2021/10/11 10:36:28;;;;;;;7.65;1.27;;;13.30;99.90;;;;;;6264027;22;20079;-91
2021/10/11 10:39:04;;;;;;;9.02;1.30;;;13.30;99.90;;;;;;6223802;23;20036;-92
2021/10/11 10:41:30;;;;;;;8.15;1.30;;;13.40;99.90;;;;;;6233553;23;20012;-91
2021/10/11 10:43:57;;;;;;;8.95;1.48;;;13.50;99.90;;;;;;6254728;23;20062;-90
2021/10/11 10:46:23;;;;;;;7.28;1.67;;;13.50;99.90;;;;;;6220967;23;20420;-91
2021/10/11 10:48:51;;;;;;;3.72;0.77;;;13.50;99.90;;;;;;6221684;23;20008;-93
2021/10/11 10:51:18;;;;;;;5.45;1.23;;;13.50;99.90;;;;;;6222042;23;20008;-91
2021/10/11 10:54:10;;;;;;;9.68;1.83;;;13.50;99.90;;;;;;6220579;23;20008;-91
2021/10/11 10:56:35;;;;;;;9.30;1.40;;;13.50;99.90;;;;;;6213224;23;20008;-91
2021/10/11 10:59:06;;;;;;;7.35;1.30;;;13.50;99.90;;;;;;6220574;23;20007;-92
2021/10/11 11:01:32;;;;;;;;;;;13.50;99.90;;;;;;6221195;23;20063;-92
2021/10/11 11:03:57;;;;;;;9.95;1.30;;;13.60;99.90;;;;;;6220887;23;19910;-91
2021/10/11 11:06:31;;;;;;;9.90;1.73;;;13.60;99.90;;;;;;6247192;23;20000;-91
2021/10/11 11:09:00;;;;;;;11.10;1.83;;;13.60;99.90;;;;;;6247004;23;20008;-91
2021/10/11 11:11:28;;;;;;;9.77;1.42;;;13.80;99.90;;;;;;6247296;23;20007;-90
2021/10/11 11:13:59;;;;;;;7.68;1.90;;;14.10;99.90;;;;;;6220233;23;20015;-91
2021/10/11 11:16:28;;;;;;;15.77;2.10;;;14.30;99.90;;;;;;6220315;23;20015;-93
2021/10/11 11:18:55;;;;;;;9.25;1.75;;;14.40;99.90;;;;;;6221582;23;20011;-90
2021/10/11 11:21:21;;;;;;;11.65;1.88;;;14.50;99.90;;;;;;6219774;23;20507;-91
2021/10/11 11:23:50;;;;;;;12.32;1.42;;;14.60;99.90;;;;;;6246594;23;20032;-90
2021/10/11 11:26:17;;;;;;;7.40;1.48;;;14.70;99.90;;;;;;6220017;23;20012;-90
2021/10/11 11:28:44;;;;;;;9.07;1.75;;;14.80;99.90;;;;;;6220528;23;20004;-90
2021/10/11 11:31:11;;;;;;;10.63;1.88;;;14.90;99.90;;;;;;6219297;23;20004;-91
2021/10/11 11:33:49;;;;;;;11.43;2.17;;;15.10;99.90;;;;;;6245983;23;20044;-90
2021/10/11 11:36:17;;;;;;;12.20;2.45;;;15.40;99.90;;;;;;6218399;23;20083;-90
2021/10/11 11:38:43;;;;;;;10.52;2.40;;;15.70;99.60;;;;;;6246670;23;20004;-91
2021/10/11 11:41:09;;;;;;;10.80;2.35;;;16.00;98.60;;;;;;6247055;23;20482;-89
2021/10/11 11:43:41;;;;;;;8.57;1.13;;;16.30;98.00;;;;;;6220012;23;20000;-90
2021/10/11 11:46:08;;;;;;;9.60;1.67;;;16.70;96.80;;;;;;6242644;23;20038;-90
2021/10/11 11:48:41;;;;;;;8.00;2.13;;;17.00;96.00;;;;;;6219362;23;20408;-90
2021/10/11 11:51:09;;;;;;;8.88;1.33;;;17.40;94.50;;;;;;6246344;23;20004;-91
2021/10/11 11:53:36;;;;;;;7.28;1.70;;;17.90;93.80;;;;;;6219427;23;20008;-91
2021/10/11 11:56:04;;;;;;;3.83;1.20;;;18.30;92.20;;;;;;6219759;23;20095;-91
2021/10/11 11:58:37;;;;;;;8.40;1.67;;;18.60;90.40;;;;;;6245916;23;20020;-90
2021/10/11 12:01:15;;;;;;;6.88;1.35;;;18.70;87.90;;;;;;6219508;23;20050;-91
2021/10/11 12:03:53;;;;;;;7.28;1.50;;;18.80;85.90;;;;;;6220817;23;20099;-91
2021/10/11 12:06:25;;;;;;;6.35;1.55;;;18.90;84.50;;;;;;6239141;23;20001;-91
2021/10/11 12:08:51;;;;;;;6.75;0.93;;;18.90;82.20;;;;;;6219085;23;20023;-92
2021/10/11 12:11:20;;;;;;;6.38;1.10;;;18.90;81.10;;;;;;6245819;23;20000;-92
2021/10/11 12:13:47;;;;;;;6.55;1.13;;;18.80;79.70;;;;;;6219722;23;20009;-91
2021/10/11 12:16:14;;;;;;;2.47;1.00;;;18.70;79.60;;;;;;6246092;23;19996;-91
2021/10/11 12:18:42;;;;;;;3.92;1.00;;;18.70;79.40;;;;;;6221293;23;20007;-92
2021/10/11 12:21:23;;;;;;;4.95;1.05;;;18.90;79.80;;;;;;6222537;23;20125;-91
2021/10/11 12:23:51;;;;;;;4.25;0.98;;;19.10;78.70;;;;;;6233162;23;20004;-91
2021/10/11 12:26:17;;;;;;;8.55;1.20;;;19.20;77.70;;;;;;6229997;23;20015;-92
2021/10/11 12:28:57;;;;;;;7.57;1.50;;;19.30;77.00;;;;;;6220188;23;20030;-91
2021/10/11 12:31:25;;;;;;;2.67;0.77;;;19.40;76.10;;;;;;6219162;23;20043;-90
2021/10/11 12:33:52;;;;;;;4.68;1.00;;;19.40;75.20;;;;;;6218039;23;20066;-92
2021/10/11 12:36:19;;;;;;;3.28;1.02;;;19.50;75.20;;;;;;6217848;23;20000;-91
2021/10/11 12:38:44;;;;;;;4.43;1.33;;;19.90;74.60;;;;;;6218147;23;20014;-91
2021/10/11 12:41:16;;;;;;;5.07;1.10;;;20.00;73.00;;;;;;6219403;23;20046;-90
2021/10/11 12:43:57;;;;;;;3.40;0.93;;;20.00;72.10;;;;;;6219259;23;20391;-91
2021/10/11 12:46:23;;;;;;;4.18;0.95;;;20.20;71.50;;;;;;6219633;23;20022;-91
2021/10/11 12:48:51;;;;;;;4.78;0.95;;;20.20;71.10;;;;;;6245277;23;20038;-91
2021/10/11 12:51:48;;;;;;;3.95;1.35;;;20.40;71.40;;;;;;6219040;23;20431;-91